createdAt,value
2023-02-06T00:01:59.245Z,18.00
2023-02-06T00:04:01.053Z,18.00
2023-02-06T00:06:02.862Z,18.00
2023-02-06T00:08:04.751Z,18.00
2023-02-06T00:10:06.802Z,18.00
2023-02-06T00:12:08.774Z,18.00
2023-02-06T00:14:10.573Z,18.00
2023-02-06T00:16:22.904Z,18.10
2023-02-06T00:18:24.647Z,18.00
2023-02-06T00:20:26.410Z,18.00
2023-02-06T00:22:28.226Z,18.00
2023-02-06T00:24:30.098Z,18.10
2023-02-06T00:26:32.557Z,18.00
2023-02-06T00:28:34.479Z,18.00
2023-02-06T00:30:36.317Z,18.00
2023-02-06T00:32:38.158Z,18.00
2023-02-06T00:34:41.762Z,18.10
2023-02-06T00:36:43.558Z,18.00
2023-02-06T00:38:45.403Z,18.00
2023-02-06T00:40:48.814Z,18.10
2023-02-06T00:42:50.623Z,18.10
2023-02-06T00:44:52.410Z,18.00
2023-02-06T00:46:54.167Z,18.00
2023-02-06T00:48:56.561Z,18.10
2023-02-06T00:50:58.323Z,18.10
2023-02-06T00:53:00.133Z,18.10
2023-02-06T00:55:02.107Z,18.10
2023-02-06T00:57:04.271Z,18.10
2023-02-06T00:59:06.097Z,18.10
2023-02-06T01:01:08.101Z,18.10
2023-02-06T01:03:09.889Z,18.10
2023-02-06T01:05:11.717Z,18.10
2023-02-06T01:07:13.565Z,18.10
2023-02-06T01:09:15.294Z,18.10
2023-02-06T01:11:19.382Z,18.10
2023-02-06T01:13:21.127Z,18.10
2023-02-06T01:15:22.988Z,18.10
2023-02-06T01:17:24.734Z,18.10
2023-02-06T01:19:26.526Z,18.10
2023-02-06T01:21:28.281Z,18.10
2023-02-06T01:23:32.223Z,18.10
2023-02-06T01:25:34.260Z,18.10
2023-02-06T01:27:37.030Z,18.10
2023-02-06T01:29:38.840Z,18.10
2023-02-06T01:31:40.659Z,18.10
2023-02-06T01:33:42.957Z,18.10
2023-02-06T01:35:44.745Z,18.10
2023-02-06T01:37:46.556Z,18.10
2023-02-06T01:39:48.377Z,18.00
2023-02-06T01:41:51.285Z,18.00
2023-02-06T01:44:07.903Z,18.00
2023-02-06T01:46:10.068Z,18.00
2023-02-06T01:48:17.170Z,18.00
2023-02-06T01:50:19.049Z,18.00
2023-02-06T01:52:24.982Z,18.00
2023-02-06T01:54:27.048Z,18.00
2023-02-06T01:56:32.637Z,18.00
2023-02-06T01:58:36.639Z,18.00
2023-02-06T02:00:38.510Z,18.00
2023-02-06T02:02:42.742Z,18.00
2023-02-06T02:04:44.844Z,18.00
2023-02-06T02:07:06.874Z,18.00
2023-02-06T02:09:08.834Z,18.00
2023-02-06T02:11:12.310Z,18.00
2023-02-06T02:13:14.106Z,18.00
2023-02-06T02:15:15.907Z,18.00
2023-02-06T02:17:38.715Z,18.00
2023-02-06T02:19:58.423Z,18.00
2023-02-06T02:22:18.832Z,18.00
2023-02-06T02:24:20.580Z,18.00
2023-02-06T02:26:31.060Z,18.00
2023-02-06T02:28:42.034Z,18.00
2023-02-06T02:30:55.035Z,18.10
2023-02-06T02:33:15.531Z,18.10
2023-02-06T02:35:35.993Z,18.10
2023-02-06T02:37:41.434Z,18.00
2023-02-06T02:39:49.037Z,18.00
2023-02-06T02:41:57.079Z,18.00
2023-02-06T02:44:07.135Z,18.00
2023-02-06T02:46:22.417Z,18.00
2023-02-06T02:48:29.660Z,18.10
2023-02-06T02:50:32.214Z,18.00
2023-02-06T02:52:34.661Z,18.00
2023-02-06T02:54:36.467Z,18.00
2023-02-06T02:56:39.221Z,18.00
2023-02-06T02:58:41.278Z,18.00
2023-02-06T03:00:44.807Z,18.00
2023-02-06T03:02:49.074Z,18.00
2023-02-06T03:04:55.689Z,18.00
2023-02-06T03:07:23.158Z,18.00
2023-02-06T03:09:24.965Z,18.00
2023-02-06T03:11:27.083Z,18.00
2023-02-06T03:13:31.814Z,18.00
2023-02-06T03:15:33.764Z,18.00
2023-02-06T03:17:38.262Z,18.00
2023-02-06T03:19:44.237Z,18.00
2023-02-06T03:21:47.420Z,18.00
2023-02-06T03:23:50.202Z,18.00
2023-02-06T03:25:54.815Z,18.00
2023-02-06T03:27:57.979Z,18.00
2023-02-06T03:30:00.595Z,18.00
2023-02-06T03:32:08.545Z,18.00
2023-02-06T03:34:33.321Z,18.00
2023-02-06T03:36:35.286Z,18.00
2023-02-06T03:38:37.101Z,18.00
2023-02-06T03:40:40.770Z,18.00
2023-02-06T03:42:45.363Z,18.00
2023-02-06T03:44:50.094Z,18.00
2023-02-06T03:46:54.403Z,18.00
2023-02-06T03:48:58.297Z,18.00
2023-02-06T03:51:01.393Z,18.00
2023-02-06T03:53:04.130Z,18.00
2023-02-06T03:55:11.570Z,18.00
2023-02-06T03:57:15.173Z,18.10
2023-02-06T03:59:17.061Z,18.10
2023-02-06T04:01:19.023Z,18.00
2023-02-06T04:03:20.859Z,18.00
2023-02-06T04:05:22.738Z,18.00
2023-02-06T04:07:28.813Z,18.00
2023-02-06T04:09:30.605Z,18.00
2023-02-06T04:11:32.375Z,18.00
2023-02-06T04:13:34.210Z,18.00
2023-02-06T04:15:36.210Z,18.00
2023-02-06T04:17:53.535Z,18.10
2023-02-06T04:20:00.061Z,18.00
2023-02-06T04:22:01.824Z,18.00
2023-02-06T04:24:03.656Z,18.10
2023-02-06T04:26:05.414Z,18.10
2023-02-06T04:28:07.253Z,18.10
2023-02-06T04:30:09.361Z,18.10
2023-02-06T04:32:11.116Z,18.00
2023-02-06T04:34:12.912Z,18.00
2023-02-06T04:36:14.712Z,18.00
2023-02-06T04:38:16.456Z,18.00
2023-02-06T04:40:18.367Z,18.00
2023-02-06T04:42:20.080Z,18.00
2023-02-06T04:44:22.375Z,18.00
2023-02-06T04:46:24.319Z,18.00
2023-02-06T04:48:26.149Z,18.00
2023-02-06T04:50:27.960Z,18.00
2023-02-06T04:52:29.664Z,18.10
2023-02-06T04:54:32.773Z,18.00
2023-02-06T04:56:34.583Z,18.10
2023-02-06T04:58:36.377Z,18.00
2023-02-06T05:00:38.841Z,18.00
2023-02-06T05:02:40.891Z,18.00
2023-02-06T05:04:42.706Z,18.00
2023-02-06T05:06:44.407Z,18.00
2023-02-06T05:08:46.203Z,18.00
2023-02-06T05:10:47.985Z,18.10
2023-02-06T05:12:49.797Z,18.10
2023-02-06T05:14:51.559Z,18.10
2023-02-06T05:16:53.295Z,18.10
2023-02-06T05:18:56.583Z,18.10
2023-02-06T05:20:58.362Z,18.10
2023-02-06T05:23:00.137Z,18.10
2023-02-06T05:25:02.242Z,18.10
2023-02-06T05:27:04.180Z,18.00
2023-02-06T05:29:06.004Z,18.00
2023-02-06T05:31:08.190Z,18.10
2023-02-06T05:33:10.125Z,18.00
2023-02-06T05:35:11.953Z,18.10
2023-02-06T05:37:13.745Z,18.10
2023-02-06T05:39:15.466Z,18.10
2023-02-06T05:41:17.778Z,18.10
2023-02-06T05:43:19.589Z,18.00
2023-02-06T05:45:21.359Z,18.00
2023-02-06T05:47:23.322Z,18.10
2023-02-06T05:49:25.105Z,18.10
2023-02-06T05:51:26.859Z,18.10
2023-02-06T05:53:28.603Z,18.10
2023-02-06T05:55:30.316Z,18.00
2023-02-06T05:57:32.151Z,18.00
2023-02-06T05:59:33.927Z,18.00
2023-02-06T06:01:35.662Z,18.10
2023-02-06T06:03:37.445Z,18.10
2023-02-06T06:05:39.455Z,18.10
2023-02-06T06:07:41.452Z,18.10
2023-02-06T06:09:43.249Z,18.10
2023-02-06T06:11:45.010Z,18.10
2023-02-06T06:13:46.823Z,18.10
2023-02-06T06:15:52.076Z,18.00
2023-02-06T06:17:54.011Z,18.10
2023-02-06T06:19:55.756Z,18.10
2023-02-06T06:21:58.390Z,18.00
2023-02-06T06:24:00.917Z,18.00
2023-02-06T06:26:02.684Z,18.10
2023-02-06T06:28:05.098Z,18.10
2023-02-06T06:30:07.243Z,18.10
2023-02-06T06:32:09.074Z,18.10
2023-02-06T06:34:10.782Z,18.10
2023-02-06T06:36:14.498Z,18.00
2023-02-06T06:38:16.420Z,18.10
2023-02-06T06:40:18.153Z,18.00
2023-02-06T06:42:19.946Z,18.00
2023-02-06T06:44:21.733Z,18.10
2023-02-06T06:46:23.503Z,18.10
2023-02-06T06:48:25.245Z,18.00
2023-02-06T06:50:27.002Z,18.10
2023-02-06T06:52:28.800Z,18.10
2023-02-06T06:54:30.552Z,18.10
2023-02-06T06:56:32.321Z,18.10
2023-02-06T06:58:34.376Z,18.10
2023-02-06T07:00:37.006Z,18.10
2023-02-06T07:02:40.261Z,18.10
2023-02-06T07:04:42.325Z,18.10
2023-02-06T07:06:44.145Z,18.10
2023-02-06T07:08:45.884Z,18.10
2023-02-06T07:10:48.110Z,18.10
2023-02-06T07:12:49.870Z,18.10
2023-02-06T07:14:51.777Z,18.10
2023-02-06T07:16:53.543Z,18.10
2023-02-06T07:18:55.352Z,18.10
2023-02-06T07:20:57.112Z,18.10
2023-02-06T07:22:58.946Z,18.10
2023-02-06T07:25:00.803Z,18.10
2023-02-06T07:27:02.543Z,18.10
2023-02-06T07:29:04.362Z,18.10
2023-02-06T07:31:06.887Z,18.10
2023-02-06T07:33:08.598Z,18.10
2023-02-06T07:35:10.415Z,18.10
2023-02-06T07:37:12.198Z,18.10
2023-02-06T07:39:13.942Z,18.10
2023-02-06T07:41:15.746Z,18.10
2023-02-06T07:43:17.579Z,18.10
2023-02-06T07:45:19.295Z,18.10
2023-02-06T07:47:21.065Z,18.10
2023-02-06T07:49:23.087Z,18.10
2023-02-06T07:51:24.857Z,18.10
2023-02-06T07:53:26.681Z,18.10
2023-02-06T07:55:28.585Z,18.10
2023-02-06T07:57:30.356Z,18.10
2023-02-06T07:59:32.124Z,18.10
2023-02-06T08:01:33.942Z,18.10
2023-02-06T08:03:36.083Z,18.10
2023-02-06T08:05:39.112Z,18.10
2023-02-06T08:07:40.964Z,18.10
2023-02-06T08:09:42.923Z,18.10
2023-02-06T08:11:44.730Z,18.10
2023-02-06T08:13:47.057Z,18.10
2023-02-06T08:15:48.846Z,18.10
2023-02-06T08:17:50.544Z,18.10
2023-02-06T08:19:52.278Z,18.10
2023-02-06T08:21:54.089Z,18.10
2023-02-06T08:23:59.516Z,18.10
2023-02-06T08:26:04.664Z,18.10
2023-02-06T08:28:06.452Z,18.10
2023-02-06T08:30:08.545Z,18.10
2023-02-06T08:32:10.569Z,18.10
2023-02-06T08:34:13.120Z,18.10
2023-02-06T08:36:15.609Z,18.10
2023-02-06T08:38:17.339Z,18.10
2023-02-06T08:40:19.180Z,18.10
2023-02-06T08:42:20.968Z,18.20
2023-02-06T08:44:22.754Z,18.10
2023-02-06T08:46:25.653Z,18.10
2023-02-06T08:48:27.484Z,18.10
2023-02-06T08:50:29.313Z,18.10
2023-02-06T08:52:31.018Z,18.10
2023-02-06T08:54:35.533Z,18.20
2023-02-06T08:56:38.902Z,18.20
2023-02-06T08:58:40.674Z,18.20
2023-02-06T09:00:42.476Z,18.20
2023-02-06T09:02:44.241Z,18.20
2023-02-06T09:04:46.040Z,18.10
2023-02-06T09:06:48.046Z,18.10
2023-02-06T09:08:49.794Z,18.10
2023-02-06T09:10:51.586Z,18.20
2023-02-06T09:12:53.640Z,18.10
2023-02-06T09:14:55.407Z,18.10
2023-02-06T09:16:57.155Z,18.10
2023-02-06T09:18:59.474Z,18.10
2023-02-06T09:21:08.504Z,18.20
2023-02-06T09:23:10.250Z,18.10
2023-02-06T09:25:12.279Z,18.10
2023-02-06T09:27:14.050Z,18.10
2023-02-06T09:29:15.811Z,18.10
2023-02-06T09:31:17.651Z,18.10
2023-02-06T09:33:19.465Z,18.20
2023-02-06T09:35:21.223Z,18.20
2023-02-06T09:37:23.007Z,18.20
2023-02-06T09:39:25.265Z,18.10
2023-02-06T09:41:27.071Z,18.10
2023-02-06T09:43:30.538Z,18.10
2023-02-06T09:45:33.120Z,18.20
2023-02-06T09:47:41.410Z,18.20
2023-02-06T09:49:44.458Z,18.20
2023-02-06T09:51:57.426Z,18.20
2023-02-06T09:54:05.007Z,18.20
2023-02-06T09:56:19.110Z,18.20
2023-02-06T09:58:20.789Z,18.20
2023-02-06T10:00:25.696Z,18.20
2023-02-06T10:02:36.998Z,18.20
2023-02-06T10:04:48.769Z,18.20
2023-02-06T10:07:16.648Z,18.20
2023-02-06T10:09:18.459Z,18.20
2023-02-06T10:11:20.208Z,18.20
2023-02-06T10:13:37.264Z,18.20
2023-02-06T10:15:44.706Z,18.20
2023-02-06T10:17:51.421Z,18.20
2023-02-06T10:19:56.186Z,18.20
2023-02-06T10:22:03.217Z,18.20
2023-02-06T10:24:17.111Z,18.20
2023-02-06T10:26:19.321Z,18.20
2023-02-06T10:28:24.440Z,18.20
2023-02-06T10:30:49.564Z,18.20
2023-02-06T10:32:54.063Z,18.20
2023-02-06T10:35:04.966Z,18.20
2023-02-06T10:37:15.645Z,18.20
2023-02-06T10:39:29.616Z,18.20
2023-02-06T10:41:47.688Z,18.20
2023-02-06T10:44:08.145Z,18.20
2023-02-06T10:46:28.640Z,18.20
2023-02-06T10:48:34.177Z,18.20
2023-02-06T10:50:41.676Z,18.20
2023-02-06T10:52:44.001Z,18.20
2023-02-06T10:55:05.990Z,18.20
2023-02-06T10:57:21.456Z,18.20
2023-02-06T10:59:32.335Z,18.20
2023-02-06T11:01:38.661Z,18.20
2023-02-06T11:03:45.566Z,18.20
2023-02-06T11:05:47.637Z,18.20
2023-02-06T11:07:51.478Z,18.20
2023-02-06T11:09:53.362Z,18.20
2023-02-06T11:11:56.783Z,18.20
2023-02-06T11:14:00.614Z,18.20
2023-02-06T11:16:04.729Z,18.20
2023-02-06T11:18:07.620Z,18.30
2023-02-06T11:20:16.138Z,18.20
2023-02-06T11:22:26.808Z,18.20
2023-02-06T11:24:28.609Z,18.20
2023-02-06T11:26:30.704Z,18.20
2023-02-06T11:28:34.340Z,18.20
2023-02-06T11:30:37.917Z,18.20
2023-02-06T11:32:41.658Z,18.20
2023-02-06T11:34:51.258Z,18.20
2023-02-06T11:36:54.854Z,18.20
2023-02-06T11:39:00.895Z,18.20
2023-02-06T11:41:04.783Z,18.20
2023-02-06T11:43:09.585Z,18.20
2023-02-06T11:45:20.430Z,18.20
2023-02-06T11:47:28.564Z,18.20
2023-02-06T11:49:30.396Z,18.20
2023-02-06T11:51:45.810Z,18.20
2023-02-06T11:53:57.864Z,18.20
2023-02-06T11:55:59.634Z,18.20
2023-02-06T11:58:07.313Z,18.20
2023-02-06T12:00:23.016Z,18.20
2023-02-06T12:02:32.251Z,18.20
2023-02-06T12:04:37.366Z,18.20
2023-02-06T12:06:40.111Z,18.20
2023-02-06T12:08:47.736Z,18.20
2023-02-06T12:11:01.273Z,18.20
2023-02-06T12:13:20.564Z,18.20
2023-02-06T12:15:45.473Z,18.20
2023-02-06T12:17:53.456Z,18.20
2023-02-06T12:19:58.621Z,18.20
2023-02-06T12:22:04.938Z,18.20
2023-02-06T12:24:18.779Z,18.20
2023-02-06T12:26:23.107Z,18.20
2023-02-06T12:28:26.981Z,18.20
2023-02-06T12:30:35.115Z,18.20
2023-02-06T12:32:40.457Z,18.20
2023-02-06T12:34:52.496Z,18.20
2023-02-06T12:36:57.033Z,18.20
2023-02-06T12:39:01.693Z,18.20
2023-02-06T12:41:03.472Z,18.20
2023-02-06T12:43:12.678Z,18.20
2023-02-06T12:45:14.565Z,18.20
2023-02-06T12:47:25.307Z,18.20
2023-02-06T12:49:34.379Z,18.20
2023-02-06T12:51:50.579Z,18.20
2023-02-06T12:53:58.818Z,18.20
2023-02-06T12:56:15.953Z,18.20
2023-02-06T12:58:40.837Z,18.20
2023-02-06T13:00:42.576Z,18.20
2023-02-06T13:02:44.366Z,18.20
2023-02-06T13:04:46.428Z,18.20
2023-02-06T13:06:54.304Z,18.20
2023-02-06T13:08:59.174Z,18.20
2023-02-06T13:11:05.951Z,18.20
2023-02-06T13:13:25.166Z,18.20
2023-02-06T13:15:28.617Z,18.20
2023-02-06T13:17:33.310Z,18.20
2023-02-06T13:19:37.730Z,18.20
2023-02-06T13:21:39.500Z,18.20
2023-02-06T13:23:50.460Z,18.20
2023-02-06T13:25:52.218Z,18.20
2023-02-06T13:27:54.896Z,18.20
2023-02-06T13:30:02.456Z,18.20
2023-02-06T13:32:10.672Z,18.20
2023-02-06T13:34:14.266Z,18.20
2023-02-06T13:36:17.521Z,18.20
2023-02-06T13:38:36.027Z,18.20
2023-02-06T13:40:37.801Z,18.20
2023-02-06T13:42:51.572Z,18.20
2023-02-06T13:44:53.509Z,18.20
2023-02-06T13:47:27.505Z,18.20
2023-02-06T13:49:29.308Z,18.20
2023-02-06T13:51:33.812Z,18.20
2023-02-06T13:53:35.577Z,18.20
2023-02-06T13:55:56.198Z,18.20
2023-02-06T13:58:25.990Z,18.20
2023-02-06T14:00:28.725Z,18.20
2023-02-06T14:02:41.129Z,18.20
2023-02-06T14:04:45.074Z,18.20
2023-02-06T14:07:07.489Z,18.20
2023-02-06T14:09:32.038Z,18.20
2023-02-06T14:11:46.305Z,18.20
2023-02-06T14:14:02.896Z,18.20
2023-02-06T14:16:12.513Z,18.20
2023-02-06T14:18:14.260Z,18.20
2023-02-06T14:20:29.061Z,18.20
2023-02-06T14:22:30.828Z,18.20
2023-02-06T14:24:44.747Z,18.20
2023-02-06T14:26:49.614Z,18.20
2023-02-06T14:28:57.568Z,18.20
2023-02-06T14:30:59.462Z,18.20
2023-02-06T14:33:01.200Z,18.20
2023-02-06T14:35:18.461Z,18.20
2023-02-06T14:37:20.205Z,18.10
2023-02-06T14:39:40.326Z,18.10
2023-02-06T14:41:42.139Z,18.20
2023-02-06T14:43:44.753Z,18.20
2023-02-06T14:46:06.230Z,18.20
2023-02-06T14:48:17.412Z,18.20
2023-02-06T14:50:26.630Z,18.20
2023-02-06T14:52:31.027Z,18.20
2023-02-06T14:54:34.323Z,18.20
2023-02-06T14:56:37.611Z,18.10
2023-02-06T14:58:39.382Z,18.20
2023-02-06T15:00:41.173Z,18.20
2023-02-06T15:02:43.002Z,18.20
2023-02-06T15:04:46.033Z,18.20
2023-02-06T15:06:58.351Z,18.20
2023-02-06T15:09:00.669Z,18.20
2023-02-06T15:11:03.884Z,18.20
2023-02-06T15:13:05.679Z,18.20
2023-02-06T15:15:10.420Z,18.20
2023-02-06T15:17:18.606Z,18.20
2023-02-06T15:19:21.960Z,18.10
2023-02-06T15:21:23.679Z,18.10
2023-02-06T15:23:25.462Z,18.20
2023-02-06T15:25:27.326Z,18.10
2023-02-06T15:27:30.778Z,18.20
2023-02-06T15:29:32.524Z,18.20
2023-02-06T15:31:34.382Z,18.20
2023-02-06T15:33:36.177Z,18.10
2023-02-06T15:35:41.690Z,18.20
2023-02-06T15:37:43.464Z,18.20
2023-02-06T15:39:45.251Z,18.20
2023-02-06T15:41:48.365Z,18.20
2023-02-06T15:43:50.899Z,18.20
2023-02-06T15:45:54.144Z,18.20
2023-02-06T15:47:56.109Z,18.20
2023-02-06T15:49:57.923Z,18.20
2023-02-06T15:51:59.870Z,18.20
2023-02-06T15:54:21.127Z,18.20
2023-02-06T15:56:34.725Z,18.20
2023-02-06T15:58:36.557Z,18.20
2023-02-06T16:00:38.607Z,18.20
2023-02-06T16:02:40.903Z,18.20
2023-02-06T16:04:42.670Z,18.20
2023-02-06T16:06:45.420Z,18.20
2023-02-06T16:08:51.613Z,18.20
2023-02-06T16:11:01.320Z,18.20
2023-02-06T16:13:08.002Z,18.20
2023-02-06T16:15:28.300Z,18.20
2023-02-06T16:17:35.067Z,18.10
2023-02-06T16:20:15.326Z,18.10
2023-02-06T16:22:17.088Z,18.10
2023-02-06T16:24:20.575Z,18.20
2023-02-06T16:26:26.782Z,18.10
2023-02-06T16:28:28.675Z,18.20
2023-02-06T16:30:32.598Z,18.10
2023-02-06T16:32:34.383Z,18.10
2023-02-06T16:34:36.118Z,18.20
2023-02-06T16:36:37.930Z,18.20
2023-02-06T16:38:39.750Z,18.20
2023-02-06T16:40:41.468Z,18.20
2023-02-06T16:42:43.737Z,18.10
2023-02-06T16:44:49.411Z,18.10
2023-02-06T16:46:51.694Z,18.10
2023-02-06T16:48:54.046Z,18.10
2023-02-06T16:50:55.834Z,18.20
2023-02-06T16:53:00.137Z,18.10
2023-02-06T16:55:02.107Z,18.20
2023-02-06T16:57:09.253Z,18.10
2023-02-06T16:59:11.041Z,18.10
2023-02-06T17:01:23.230Z,18.10
2023-02-06T17:03:24.994Z,18.20
2023-02-06T17:05:27.357Z,18.10
2023-02-06T17:07:31.385Z,18.10
2023-02-06T17:09:33.132Z,18.10
2023-02-06T17:11:35.759Z,18.10
2023-02-06T17:13:37.485Z,18.10
2023-02-06T17:15:39.459Z,18.10
2023-02-06T17:17:41.514Z,18.10
2023-02-06T17:19:43.781Z,18.10
2023-02-06T17:21:45.545Z,18.10
2023-02-06T17:23:48.374Z,18.10
2023-02-06T17:25:50.118Z,18.10
2023-02-06T17:27:52.255Z,18.20
2023-02-06T17:29:54.082Z,18.10
2023-02-06T17:31:55.894Z,18.10
2023-02-06T17:33:57.694Z,18.10
2023-02-06T17:35:59.474Z,18.10
2023-02-06T17:38:01.228Z,18.10
2023-02-06T17:40:03.425Z,18.20
2023-02-06T17:42:05.231Z,18.10
2023-02-06T17:44:07.020Z,18.10
2023-02-06T17:46:10.692Z,18.10
2023-02-06T17:48:12.553Z,18.10
2023-02-06T17:50:15.974Z,18.10
2023-02-06T17:52:17.794Z,18.10
2023-02-06T17:54:19.594Z,18.10
2023-02-06T17:56:21.351Z,18.10
2023-02-06T17:58:23.280Z,18.10
2023-02-06T18:00:25.294Z,18.10
2023-02-06T18:02:27.096Z,18.10
2023-02-06T18:04:29.031Z,18.10
2023-02-06T18:06:34.246Z,18.10
2023-02-06T18:08:36.139Z,18.10
2023-02-06T18:10:39.044Z,18.10
2023-02-06T18:12:41.034Z,18.10
2023-02-06T18:14:42.838Z,18.10
2023-02-06T18:16:44.595Z,18.10
2023-02-06T18:18:46.981Z,18.10
2023-02-06T18:20:49.027Z,18.10
2023-02-06T18:22:50.819Z,18.10
2023-02-06T18:24:52.544Z,18.10
2023-02-06T18:26:54.277Z,18.10
2023-02-06T18:28:56.070Z,18.10
2023-02-06T18:30:57.951Z,18.10
2023-02-06T18:32:59.857Z,18.10
2023-02-06T18:35:01.621Z,18.10
2023-02-06T18:37:03.460Z,18.10
2023-02-06T18:39:05.553Z,18.00
2023-02-06T18:41:07.324Z,18.00
2023-02-06T18:43:09.063Z,18.10
2023-02-06T18:45:10.832Z,18.10
2023-02-06T18:47:13.465Z,18.10
2023-02-06T18:49:15.212Z,18.00
2023-02-06T18:51:16.999Z,18.00
2023-02-06T18:53:18.774Z,18.10
2023-02-06T18:55:20.507Z,18.00
2023-02-06T18:57:22.319Z,18.00
2023-02-06T18:59:24.113Z,18.10
2023-02-06T19:01:26.092Z,18.10
2023-02-06T19:03:27.858Z,18.10
2023-02-06T19:05:33.501Z,18.10
2023-02-06T19:07:35.289Z,18.10
2023-02-06T19:09:37.461Z,18.10
2023-02-06T19:11:40.510Z,18.10
2023-02-06T19:13:42.292Z,18.10
2023-02-06T19:15:44.033Z,18.10
2023-02-06T19:17:45.862Z,18.00
2023-02-06T19:19:47.632Z,18.10
2023-02-06T19:21:49.502Z,18.10
2023-02-06T19:23:55.634Z,18.10
2023-02-06T19:25:57.502Z,18.10
2023-02-06T19:27:59.350Z,18.10
2023-02-06T19:30:01.106Z,18.10
2023-02-06T19:32:03.964Z,18.10
2023-02-06T19:34:06.386Z,18.10
2023-02-06T19:36:09.786Z,18.10
2023-02-06T19:38:11.550Z,18.10
2023-02-06T19:40:13.305Z,18.10
2023-02-06T19:42:15.085Z,18.10
2023-02-06T19:44:16.885Z,18.10
2023-02-06T19:46:21.747Z,18.10
2023-02-06T19:48:23.488Z,18.10
2023-02-06T19:50:25.248Z,18.10
2023-02-06T19:52:27.043Z,18.00
2023-02-06T19:54:28.815Z,18.10
2023-02-06T19:56:32.082Z,18.00
2023-02-06T19:58:33.862Z,18.00
2023-02-06T20:00:36.847Z,18.00
2023-02-06T20:02:38.746Z,18.00
2023-02-06T20:04:40.510Z,18.00
2023-02-06T20:06:42.919Z,18.00
2023-02-06T20:08:45.314Z,18.00
2023-02-06T20:10:47.027Z,18.00
2023-02-06T20:12:48.835Z,17.90
2023-02-06T20:14:50.638Z,17.90
2023-02-06T20:16:52.431Z,17.90
2023-02-06T20:18:54.703Z,17.90
2023-02-06T20:20:56.432Z,17.80
2023-02-06T20:22:58.182Z,17.80
2023-02-06T20:24:59.974Z,17.80
2023-02-06T20:27:02.855Z,17.80
2023-02-06T20:29:05.560Z,17.80
2023-02-06T20:31:10.650Z,17.80
2023-02-06T20:33:12.526Z,17.80
2023-02-06T20:35:14.323Z,17.80
2023-02-06T20:37:16.048Z,17.80
2023-02-06T20:39:18.576Z,17.80
2023-02-06T20:41:21.121Z,17.70
2023-02-06T20:43:23.106Z,17.70
2023-02-06T20:45:24.931Z,17.70
2023-02-06T20:47:27.239Z,17.70
2023-02-06T20:49:29.509Z,17.60
2023-02-06T20:51:31.949Z,17.60
2023-02-06T20:53:33.676Z,17.60
2023-02-06T20:55:39.024Z,17.60
2023-02-06T20:57:40.813Z,17.60
2023-02-06T20:59:42.530Z,17.60
2023-02-06T21:01:44.383Z,17.60
2023-02-06T21:03:46.588Z,17.60
2023-02-06T21:05:55.446Z,17.60
2023-02-06T21:07:57.691Z,17.60
2023-02-06T21:09:59.512Z,17.50
2023-02-06T21:12:01.290Z,17.60
2023-02-06T21:14:03.979Z,17.50
2023-02-06T21:16:06.188Z,17.50
2023-02-06T21:18:08.095Z,17.50
2023-02-06T21:20:10.067Z,17.50
2023-02-06T21:22:11.831Z,17.50
2023-02-06T21:24:14.371Z,17.50
2023-02-06T21:26:16.526Z,17.50
2023-02-06T21:28:22.004Z,17.50
2023-02-06T21:30:23.871Z,17.50
2023-02-06T21:32:25.707Z,17.50
2023-02-06T21:34:27.499Z,17.50
2023-02-06T21:36:30.131Z,17.40
2023-02-06T21:38:32.020Z,17.40
2023-02-06T21:40:34.116Z,17.40
2023-02-06T21:42:35.881Z,17.40
2023-02-06T21:44:37.929Z,17.40
2023-02-06T21:46:39.730Z,17.40
2023-02-06T21:48:41.743Z,17.40
2023-02-06T21:50:43.477Z,17.40
2023-02-06T21:52:45.219Z,17.40
2023-02-06T21:54:47.019Z,17.40
2023-02-06T21:56:48.766Z,17.40
2023-02-06T21:58:51.121Z,17.40
2023-02-06T22:00:52.911Z,17.40
2023-02-06T22:02:54.686Z,17.30
2023-02-06T22:04:56.427Z,17.30
2023-02-06T22:06:58.210Z,17.30
2023-02-06T22:09:00.000Z,17.20
2023-02-06T22:11:01.939Z,17.20
2023-02-06T22:13:04.400Z,17.30
2023-02-06T22:15:06.871Z,17.20
2023-02-06T22:17:08.652Z,17.20
2023-02-06T22:19:10.445Z,17.20
2023-02-06T22:21:16.738Z,17.20
2023-02-06T22:23:18.494Z,17.10
2023-02-06T22:25:20.325Z,17.20
2023-02-06T22:27:22.167Z,17.10
2023-02-06T22:29:23.920Z,17.10
2023-02-06T22:31:30.229Z,17.20
2023-02-06T22:33:32.043Z,17.20
2023-02-06T22:35:33.824Z,17.10
2023-02-06T22:37:35.630Z,17.10
2023-02-06T22:39:37.415Z,17.10
2023-02-06T22:41:40.358Z,17.10
2023-02-06T22:43:42.900Z,17.10
2023-02-06T22:45:44.686Z,17.10
2023-02-06T22:47:46.483Z,17.10
2023-02-06T22:49:49.877Z,17.10
2023-02-06T22:51:52.045Z,17.10
2023-02-06T22:53:53.868Z,17.10
2023-02-06T22:55:59.345Z,17.10
2023-02-06T22:58:01.131Z,17.10
2023-02-06T23:00:03.926Z,17.10
2023-02-06T23:02:05.674Z,17.10
2023-02-06T23:04:08.729Z,17.00
2023-02-06T23:06:11.858Z,17.00
2023-02-06T23:08:13.673Z,17.00
2023-02-06T23:10:15.467Z,17.00
2023-02-06T23:12:17.199Z,17.00
2023-02-06T23:14:19.337Z,17.00
2023-02-06T23:16:21.382Z,17.00
2023-02-06T23:18:23.649Z,17.00
2023-02-06T23:20:25.449Z,17.00
2023-02-06T23:22:27.183Z,17.00
2023-02-06T23:24:29.014Z,17.00
2023-02-06T23:26:31.063Z,17.00
2023-02-06T23:28:32.816Z,17.00
2023-02-06T23:30:34.675Z,16.90
2023-02-06T23:32:36.463Z,17.00
2023-02-06T23:34:39.975Z,16.90
2023-02-06T23:36:42.238Z,16.90
2023-02-06T23:38:44.789Z,16.90
2023-02-06T23:40:46.722Z,16.90
2023-02-06T23:42:48.486Z,16.90
2023-02-06T23:44:50.274Z,16.90
2023-02-06T23:46:52.030Z,16.90
2023-02-06T23:48:54.265Z,16.90
2023-02-06T23:50:55.983Z,16.90
2023-02-06T23:52:57.771Z,16.90
2023-02-06T23:54:59.488Z,16.90
2023-02-06T23:57:01.293Z,16.80
2023-02-06T23:59:03.753Z,16.80
